Time;durP1;ratioP1;P1;durP2;ratioP2;P2;SDS_P1;SDS_P2;PMS_P1;PMS_P2;Temp;Humidity;BMP_temperature;BMP_pressure;BME280_temperature;BME280_humidity;BME280_pressure;Samples;Min_cycle;Max_cycle;Signal;HPM_P1;HPM_P2
2021/11/28 00:01:50;;;;;;;37.47;17.87;;;;;;;1.92;94.81;99614.94;5132989;27;20034;-62
2021/11/28 00:04:15;;;;;;;35.30;17.30;;;;;;;1.91;94.87;99608.03;5132784;27;20159;-62
2021/11/28 00:06:50;;;;;;;36.63;19.30;;;;;;;1.94;94.65;99615.66;5132478;27;20064;-62
2021/11/28 00:11:45;;;;;;;37.37;18.40;;;;;;;1.95;94.80;99623.41;5132669;27;20529;-62
2021/11/28 00:14:14;;;;;;;40.70;17.83;;;;;;;1.96;94.78;99622.44;5132331;27;20122;-62
2021/11/28 00:16:40;;;;;;;37.57;18.47;;;;;;;2.05;94.69;99630.53;5132461;27;20122;-62
2021/11/28 00:19:06;;;;;;;38.15;18.55;;;;;;;2.06;94.44;99632.19;5132394;27;20099;-62
2021/11/28 00:21:33;;;;;;;37.30;18.38;;;;;;;2.03;94.31;99632.47;5132253;27;20107;-62
2021/11/28 00:23:58;;;;;;;33.07;18.43;;;;;;;2.01;94.53;99626.47;5132170;27;20058;-62
2021/11/28 00:26:24;;;;;;;38.93;19.27;;;;;;;2.01;94.58;99629.09;5131736;27;20060;-62
2021/11/28 00:28:50;;;;;;;37.40;18.52;;;;;;;1.97;94.30;99634.63;5132252;27;20119;-62
2021/11/28 00:31:15;;;;;;;38.33;18.73;;;;;;;1.98;94.64;99638.06;5132372;27;20025;-62
2021/11/28 00:33:41;;;;;;;36.80;20.27;;;;;;;1.98;94.64;99638.06;5132154;27;20027;-62
2021/11/28 00:36:06;;;;;;;37.40;19.33;;;;;;;1.98;94.49;99644.19;5131876;27;20027;-62
2021/11/28 00:38:32;;;;;;;36.87;19.83;;;;;;;1.98;94.49;99645.97;5131949;27;20039;-63
2021/11/28 00:40:57;;;;;;;37.63;19.90;;;;;;;1.99;94.48;99650.25;5113697;27;20031;-62
2021/11/28 00:43:23;;;;;;;36.83;18.88;;;;;;;1.98;94.47;99652.06;5131758;27;20023;-62
2021/11/28 00:45:50;;;;;;;37.80;19.70;;;;;;;1.97;94.29;99647.75;5131966;27;20110;-62
2021/11/28 00:48:16;;;;;;;40.60;19.87;;;;;;;1.95;94.76;99649.66;5131984;27;20385;-62
2021/11/28 00:53:07;;;;;;;39.80;18.98;;;;;;;1.97;94.64;99652.16;5131862;27;20042;-62
2021/11/28 00:55:33;;;;;;;38.47;19.53;;;;;;;1.99;94.61;99660.78;5131768;27;20051;-62
2021/11/28 00:57:58;;;;;;;35.15;19.08;;;;;;;1.98;94.57;99666.97;5132036;27;20062;-62
2021/11/28 01:00:23;;;;;;;36.13;18.23;;;;;;;1.98;94.59;99669.59;5131635;27;20039;-62
2021/11/28 01:02:49;;;;;;;35.23;19.07;;;;;;;1.97;94.99;99668.78;5131619;27;20086;-62
2021/11/28 01:05:14;;;;;;;36.03;19.60;;;;;;;1.97;94.54;99674.03;5131685;27;20022;-62
2021/11/28 01:07:39;;;;;;;39.27;19.10;;;;;;;1.97;94.61;99679.28;5131448;27;20019;-61
2021/11/28 01:10:08;;;;;;;37.60;18.77;;;;;;;1.95;94.66;99678.56;5131402;27;20027;-63
2021/11/28 01:12:33;;;;;;;36.67;18.47;;;;;;;1.98;94.78;99677.50;5129107;22;20109;-62
2021/11/28 01:14:58;;;;;;;36.23;19.33;;;;;;;2.02;94.70;99688.59;5111380;28;20470;-62
2021/11/28 01:17:25;;;;;;;35.33;17.77;;;;;;;1.99;94.72;99694.94;5110683;28;20051;-63
2021/11/28 01:19:51;;;;;;;37.07;18.40;;;;;;;2.01;94.51;99687.78;5110824;28;20024;-62
2021/11/28 01:22:16;;;;;;;40.10;18.63;;;;;;;2.02;94.64;99692.06;5110811;28;20386;-62
2021/11/28 01:24:42;;;;;;;34.87;17.90;;;;;;;2.01;94.46;99695.66;5110863;28;20367;-62
2021/11/28 01:27:12;;;;;;;37.22;17.88;;;;;;;2.01;94.42;99698.28;5110906;28;20080;-63
2021/11/28 01:29:38;;;;;;;38.03;19.03;;;;;;;2.01;94.54;99702.69;5110823;28;20023;-62
2021/11/28 01:32:04;;;;;;;39.57;18.30;;;;;;;2.00;94.46;99707.13;5110664;28;20523;-62
2021/11/28 01:34:30;;;;;;;36.90;18.17;;;;;;;2.04;94.48;99713.78;5110995;28;20023;-62
2021/11/28 01:36:55;;;;;;;;;;;;;;;2.05;94.37;99718.09;5111010;28;20031;-62
2021/11/28 01:39:22;;;;;;;35.73;17.93;;;;;;;2.03;94.54;99722.63;5110789;28;20401;-62
2021/11/28 01:41:47;;;;;;;33.72;17.40;;;;;;;2.03;94.45;99711.31;5110917;28;20497;-62
2021/11/28 01:44:13;;;;;;;34.65;18.13;;;;;;;2.01;94.35;99710.56;5110625;28;20114;-62
2021/11/28 01:46:38;;;;;;;33.88;18.77;;;;;;;2.01;94.31;99715.84;5110787;28;20032;-62
2021/11/28 01:49:06;;;;;;;33.30;17.50;;;;;;;1.97;94.33;99715.22;5110727;28;20505;-62
2021/11/28 01:51:32;;;;;;;33.83;17.63;;;;;;;1.94;94.44;99713.72;5110483;28;20030;-62
2021/11/28 01:53:57;;;;;;;37.60;18.40;;;;;;;1.90;94.40;99719.31;5110554;28;20379;-62
2021/11/28 01:56:25;;;;;;;35.27;17.13;;;;;;;1.89;94.30;99723.75;5110487;28;20088;-62
2021/11/28 01:58:51;;;;;;;34.20;18.27;;;;;;;1.89;94.43;99728.16;5110695;28;20032;-63
2021/11/28 02:01:19;;;;;;;34.00;18.10;;;;;;;1.85;94.68;99732.81;5110676;28;20024;-62
2021/11/28 02:03:47;;;;;;;33.30;18.53;;;;;;;1.85;94.40;99735.44;5110677;28;20025;-62
2021/11/28 02:06:16;;;;;;;31.57;17.33;;;;;;;1.88;94.48;99737.00;5110375;28;20612;-62
2021/11/28 02:08:42;;;;;;;32.40;17.23;;;;;;;1.88;94.42;99731.75;5110196;28;20055;-62
2021/11/28 02:11:08;;;;;;;38.63;19.27;;;;;;;1.88;94.43;99734.38;5110028;28;20023;-62
2021/11/28 02:13:34;;;;;;;30.45;16.33;;;;;;;1.89;94.43;99739.53;5129296;28;20505;-61
2021/11/28 02:16:00;;;;;;;30.88;16.65;;;;;;;1.89;94.41;99742.16;5130999;28;20046;-62
2021/11/28 02:18:26;;;;;;;30.60;16.08;;;;;;;1.91;94.62;99734.97;5130820;28;20062;-62
2021/11/28 02:20:54;;;;;;;30.52;15.98;;;;;;;1.93;94.67;99740.94;5130910;28;20057;-62
2021/11/28 02:23:20;;;;;;;28.53;16.03;;;;;;;1.93;94.57;99743.56;5130631;28;20024;-62
2021/11/28 02:25:46;;;;;;;31.25;15.65;;;;;;;1.91;94.31;99748.09;5130853;28;20011;-62
2021/11/28 02:28:12;;;;;;;28.85;14.73;;;;;;;1.89;94.67;99760.53;5131026;27;20390;-62
2021/11/28 02:30:38;;;;;;;27.73;15.55;;;;;;;1.89;94.43;99757.91;5134472;27;20034;-62
2021/11/28 02:33:04;;;;;;;23.48;14.10;;;;;;;1.91;94.22;99760.41;5134491;27;20026;-62
2021/11/28 02:35:31;;;;;;;27.10;14.60;;;;;;;1.93;94.34;99758.47;5134470;27;20031;-62
2021/11/28 02:37:57;;;;;;;29.33;14.93;;;;;;;1.94;94.35;99760.16;5134247;27;20059;-62
2021/11/28 02:40:25;;;;;;;27.33;13.90;;;;;;;1.97;94.38;99763.38;5115814;27;20107;-62
2021/11/28 02:42:52;;;;;;;27.57;15.00;;;;;;;1.98;94.15;99765.06;5134241;27;20390;-62
2021/11/28 02:45:20;;;;;;;27.97;14.80;;;;;;;1.97;94.15;99768.66;5115933;27;20028;-62
2021/11/28 02:47:45;;;;;;;23.97;13.73;;;;;;;2.03;94.82;99769.94;5134410;27;20039;-62
2021/11/28 02:50:14;;;;;;;21.20;12.02;;;;;;;2.03;94.15;99769.94;5134156;27;20038;-62
2021/11/28 02:52:40;;;;;;;22.50;13.00;;;;;;;1.98;93.89;99769.47;5134187;27;20030;-62
2021/11/28 02:55:06;;;;;;;19.73;12.52;;;;;;;2.01;93.63;99773.66;5133928;27;20064;-62
2021/11/28 02:57:32;;;;;;;;;;;;;;;1.99;93.20;99779.03;5134464;27;20019;-62
2021/11/28 02:59:57;;;;;;;22.50;11.87;;;;;;;1.96;93.03;99785.38;5134041;27;20005;-62
2021/11/28 03:02:22;;;;;;;17.70;11.13;;;;;;;1.88;92.92;99776.41;5133963;27;20066;-62
2021/11/28 03:04:48;;;;;;;18.03;10.83;;;;;;;1.77;92.67;99787.78;5134108;27;20031;-62
2021/11/28 03:07:18;;;;;;;18.37;10.27;;;;;;;1.71;92.45;99789.09;5133989;27;20379;-62
2021/11/28 03:09:44;;;;;;;15.50;9.70;;;;;;;1.58;92.16;99783.97;5133478;27;20023;-62
2021/11/28 03:12:10;;;;;;;15.98;10.20;;;;;;;1.39;91.98;99781.91;5115161;27;20057;-62
2021/11/28 03:14:35;;;;;;;16.55;11.05;;;;;;;1.18;91.48;99776.53;5133917;27;20023;-62
2021/11/28 03:17:01;;;;;;;13.73;9.43;;;;;;;1.01;91.86;99777.78;5133802;27;20404;-63
2021/11/28 03:19:26;;;;;;;14.10;9.20;;;;;;;0.81;91.96;99768.81;5133717;27;20751;-62
2021/11/28 03:21:51;;;;;;;13.60;8.93;;;;;;;0.63;92.34;99769.25;5133616;27;20026;-62
2021/11/28 03:24:17;;;;;;;17.20;9.97;;;;;;;0.52;92.53;99765.75;5133346;27;20027;-62
2021/11/28 03:26:43;;;;;;;16.83;10.47;;;;;;;0.39;92.08;99773.66;5133543;27;20023;-62
2021/11/28 03:29:10;;;;;;;18.87;10.43;;;;;;;0.28;92.24;99774.47;5133591;27;20023;-62
2021/11/28 03:31:42;;;;;;;20.73;11.13;;;;;;;0.23;92.70;99781.81;5133464;27;20026;-62
2021/11/28 03:34:10;;;;;;;17.77;9.33;;;;;;;0.13;93.49;99790.34;5133293;27;20047;-62
2021/11/28 03:36:39;;;;;;;18.03;10.27;;;;;;;0.06;93.67;99785.66;5133171;27;20015;-62
2021/11/28 03:39:08;;;;;;;20.27;10.17;;;;;;;0.06;93.57;99785.66;5132485;27;20083;-62
2021/11/28 03:41:35;;;;;;;17.20;8.90;;;;;;;-0.06;94.24;99782.94;5133299;27;20023;-62
2021/11/28 03:44:02;;;;;;;13.60;7.50;;;;;;;-0.19;93.70;99788.22;5114489;27;20027;-62
2021/11/28 03:46:28;;;;;;;15.27;8.63;;;;;;;-0.30;93.65;99788.13;5133359;27;20027;-62
2021/11/28 03:48:55;;;;;;;16.90;8.10;;;;;;;-0.39;93.82;99787.00;5133179;27;20060;-62
2021/11/28 03:51:20;;;;;;;13.93;8.13;;;;;;;-0.48;93.57;99789.44;5132922;27;20023;-62
2021/11/28 03:53:46;;;;;;;22.17;10.30;;;;;;;-0.59;94.05;99795.38;5132953;27;20553;-62
2021/11/28 03:56:12;;;;;;;14.18;7.90;;;;;;;-0.68;92.99;99789.84;5132980;27;20033;-61
2021/11/28 03:58:38;;;;;;;17.33;8.83;;;;;;;-0.75;93.21;99791.22;5133047;27;20443;-61
2021/11/28 04:01:06;;;;;;;18.00;8.67;;;;;;;-0.81;93.88;99796.84;5132758;27;20034;-62
2021/11/28 04:03:33;;;;;;;16.77;8.93;;;;;;;-0.86;94.02;99791.09;5132751;27;20027;-62
2021/11/28 04:05:59;;;;;;;16.33;8.60;;;;;;;-0.91;93.69;99795.81;5132783;27;20023;-62
2021/11/28 04:08:24;;;;;;;15.90;8.10;;;;;;;-0.95;94.04;99789.09;5132631;27;20023;-62
2021/11/28 04:10:50;;;;;;;18.00;9.00;;;;;;;-0.98;94.62;99795.38;5132306;27;20085;-62
2021/11/28 04:13:16;;;;;;;20.50;8.82;;;;;;;-1.01;94.78;99795.59;5132428;27;20054;-62
2021/11/28 04:15:42;;;;;;;21.25;10.50;;;;;;;-0.94;94.96;99789.00;5132539;27;20023;-62
2021/11/28 04:18:08;;;;;;;21.65;10.45;;;;;;;-0.92;94.74;99791.50;5132618;27;20015;-62
2021/11/28 04:20:33;;;;;;;21.53;10.00;;;;;;;-0.90;94.39;99787.84;5132391;27;20139;-64
2021/11/28 04:22:59;;;;;;;15.48;7.65;;;;;;;-0.94;94.49;99790.78;5132384;27;20026;-62
2021/11/28 04:25:25;;;;;;;18.73;8.73;;;;;;;-1.03;95.19;99793.06;5132069;27;20094;-62
2021/11/28 04:27:50;;;;;;;17.73;8.50;;;;;;;-1.13;94.75;99792.03;5132531;27;20057;-62
2021/11/28 04:30:15;;;;;;;18.60;9.00;;;;;;;-1.19;94.30;99787.19;5132287;27;20059;-62
2021/11/28 04:32:41;;;;;;;15.60;8.25;;;;;;;-1.23;95.01;99790.94;5132347;27;20031;-62
2021/11/28 04:35:07;;;;;;;19.33;9.65;;;;;;;-1.26;94.83;99789.38;5132105;27;20019;-62
2021/11/28 04:37:33;;;;;;;;;;;;;;;-1.27;94.67;99790.31;5132596;27;20091;-62
2021/11/28 04:39:59;;;;;;;18.43;8.73;;;;;;;-1.28;95.01;99790.41;5132127;27;19915;-61
2021/11/28 04:42:24;;;;;;;19.85;9.13;;;;;;;-1.31;94.33;99790.59;5131748;27;20035;-61
2021/11/28 04:44:50;;;;;;;24.03;10.10;;;;;;;-1.35;94.47;99788.19;5132134;27;20027;-62
2021/11/28 04:47:18;;;;;;;16.98;8.25;;;;;;;-1.36;94.93;99790.91;5132201;27;20149;-62
2021/11/28 04:49:45;;;;;;;22.83;9.33;;;;;;;-1.37;94.85;99786.63;5131925;27;20027;-62
2021/11/28 04:52:11;;;;;;;19.83;8.90;;;;;;;-1.41;94.54;99791.19;5131284;27;20019;-62
2021/11/28 04:54:36;;;;;;;20.27;9.90;;;;;;;-1.41;94.58;99790.38;5131895;27;20039;-62
2021/11/28 04:57:02;;;;;;;22.73;9.30;;;;;;;-1.42;95.01;99794.78;5131915;27;20073;-61
2021/11/28 04:59:27;;;;;;;20.83;9.20;;;;;;;-1.43;94.72;99800.94;5131961;27;20034;-61
2021/11/28 05:01:53;;;;;;;21.50;8.87;;;;;;;-1.43;95.06;99798.31;5131787;27;20031;-62
2021/11/28 05:04:18;;;;;;;19.87;9.00;;;;;;;-1.44;95.28;99806.28;5131838;27;20106;-62
2021/11/28 05:06:44;;;;;;;23.77;10.03;;;;;;;-1.45;94.62;99809.81;5131721;27;20011;-61
2021/11/28 05:09:09;;;;;;;24.33;9.90;;;;;;;-1.46;95.14;99811.56;5131579;27;20110;-62
2021/11/28 05:14:06;;;;;;;21.57;9.47;;;;;;;-1.46;94.85;99810.75;5068684;28;20472;-62
2021/11/28 05:16:33;;;;;;;22.00;9.23;;;;;;;-1.47;94.94;99815.16;5070691;28;20111;-62
2021/11/28 05:18:59;;;;;;;25.73;10.30;;;;;;;-1.46;94.89;99815.97;5070503;28;20025;-62
2021/11/28 05:21:25;;;;;;;27.92;10.93;;;;;;;-1.46;94.41;99815.97;5052702;28;20028;-62
2021/11/28 05:23:50;;;;;;;23.85;9.10;;;;;;;-1.47;94.88;99825.59;5070372;28;20025;-62
2021/11/28 05:26:16;;;;;;;22.73;10.10;;;;;;;-1.44;94.87;99828.00;5070342;28;20459;-62
2021/11/28 05:28:41;;;;;;;25.90;9.55;;;;;;;-1.38;94.97;99839.81;5070421;28;20039;-62
2021/11/28 05:31:06;;;;;;;23.30;8.70;;;;;;;-1.37;94.98;99834.50;5070181;28;20063;-62
2021/11/28 05:33:32;;;;;;;24.53;9.80;;;;;;;-1.37;95.01;99836.28;5070383;28;20025;-62
2021/11/28 05:35:57;;;;;;;18.20;8.17;;;;;;;-1.39;95.33;99833.78;5070343;28;20021;-61
2021/11/28 05:38:23;;;;;;;18.37;7.93;;;;;;;-1.38;95.47;99832.84;5070341;28;20267;-61
2021/11/28 05:40:48;;;;;;;25.13;10.03;;;;;;;-1.36;95.47;99828.34;5070398;28;20028;-62
2021/11/28 05:43:14;;;;;;;25.83;11.18;;;;;;;-1.31;94.52;99829.81;5069801;28;20025;-62
2021/11/28 05:45:39;;;;;;;22.67;9.80;;;;;;;-1.28;94.83;99827.00;5070303;28;20777;-63
2021/11/28 05:48:05;;;;;;;27.83;11.40;;;;;;;-1.23;95.06;99828.38;5070451;28;20062;-62
2021/11/28 05:50:31;;;;;;;29.95;12.70;;;;;;;-1.18;95.50;99828.09;5070123;28;20102;-62
2021/11/28 05:52:57;;;;;;;23.90;10.02;;;;;;;-1.15;95.39;99834.91;5070236;28;20178;-62
2021/11/28 05:55:24;;;;;;;22.97;10.40;;;;;;;-1.13;95.47;99828.63;5069961;28;20027;-62
2021/11/28 05:57:50;;;;;;;29.92;11.88;;;;;;;-1.12;95.37;99838.13;5070005;28;20013;-62
2021/11/28 06:00:17;;;;;;;;;;;;;;;-1.12;94.93;99842.53;5052829;28;20059;-61
2021/11/28 06:02:43;;;;;;;30.00;12.07;;;;;;;-1.09;95.84;99858.00;5071157;28;19913;-62
2021/11/28 06:05:09;;;;;;;25.20;9.77;;;;;;;-1.11;95.42;99855.50;5074137;28;20383;-62
2021/11/28 06:07:34;;;;;;;26.15;10.45;;;;;;;-1.13;95.85;99853.91;5073723;28;20479;-62
2021/11/28 06:10:00;;;;;;;27.80;11.35;;;;;;;-1.17;94.98;99851.50;5073770;28;20025;-62
2021/11/28 06:12:25;;;;;;;26.75;11.35;;;;;;;-1.21;95.71;99857.88;5073198;28;20048;-62
2021/11/28 06:14:51;;;;;;;23.00;10.40;;;;;;;-1.23;95.06;99853.69;5073895;28;20028;-62
2021/11/28 06:17:16;;;;;;;19.77;8.57;;;;;;;-1.25;95.31;99860.78;5073969;28;20104;-62
2021/11/28 06:19:42;;;;;;;22.83;10.20;;;;;;;-1.28;95.64;99853.16;5073723;28;20112;-62
2021/11/28 06:22:09;;;;;;;27.77;10.80;;;;;;;-1.29;95.44;99848.84;5073580;28;20104;-62
2021/11/28 06:24:38;;;;;;;22.77;9.80;;;;;;;-1.30;95.48;99852.41;5073632;28;20028;-62
2021/11/28 06:27:04;;;;;;;26.80;11.23;;;;;;;-1.29;95.57;99854.09;5073406;28;20036;-62
2021/11/28 06:29:29;;;;;;;;;;;;;;;-1.26;95.59;99866.94;5073905;28;20035;-61
2021/11/28 06:31:54;;;;;;;26.47;10.20;;;;;;;-1.25;95.26;99871.25;5073672;28;20089;-62
2021/11/28 06:34:20;;;;;;;21.20;9.37;;;;;;;-1.24;95.49;99870.31;5073444;28;20020;-62
2021/11/28 06:36:45;;;;;;;28.27;11.53;;;;;;;-1.18;95.94;99873.38;5073570;28;20020;-61
2021/11/28 06:39:11;;;;;;;27.13;11.53;;;;;;;-1.09;94.75;99874.56;5071909;28;20025;-62
2021/11/28 06:41:36;;;;;;;30.87;11.43;;;;;;;-1.01;95.75;99869.66;5073242;28;20227;-64
2021/11/28 06:44:01;;;;;;;31.67;12.40;;;;;;;-0.94;95.69;99877.94;5072936;28;20024;-60
2021/11/28 06:46:28;;;;;;;33.30;13.10;;;;;;;-0.84;95.76;99881.63;5073500;28;20020;-60
2021/11/28 06:48:53;;;;;;;;;;;;;;;-0.75;95.33;99884.56;5073605;28;20021;-61
2021/11/28 06:51:19;;;;;;;31.00;11.23;;;;;;;-0.68;96.13;99888.44;5072998;28;20478;-61
2021/11/28 06:53:44;;;;;;;34.90;13.18;;;;;;;-0.59;95.57;99889.59;5073108;28;20024;-60
2021/11/28 06:56:09;;;;;;;36.03;13.13;;;;;;;-0.55;96.20;99893.69;5073056;28;20058;-61
2021/11/28 06:58:35;;;;;;;29.93;11.20;;;;;;;-0.53;95.64;99897.03;5072840;28;20110;-61
2021/11/28 07:01:02;;;;;;;32.33;12.60;;;;;;;-0.52;95.38;99891.69;5073076;28;20035;-62
2021/11/28 07:03:27;;;;;;;34.43;12.30;;;;;;;-0.51;95.61;99898.63;5073009;28;20028;-61
2021/11/28 07:05:53;;;;;;;33.27;12.57;;;;;;;-0.46;95.39;99890.47;5073005;28;20435;-61
2021/11/28 07:08:19;;;;;;;32.38;12.65;;;;;;;-0.45;95.58;99901.75;5073091;28;20263;-61
2021/11/28 07:10:44;;;;;;;37.13;12.93;;;;;;;-0.43;95.50;99916.44;5072937;28;20033;-62
2021/11/28 07:13:10;;;;;;;30.73;12.13;;;;;;;-0.40;95.76;99918.00;5084702;28;20052;-61
2021/11/28 07:15:36;;;;;;;36.03;13.30;;;;;;;-0.35;95.47;99919.34;5091985;28;20024;-61
2021/11/28 07:18:03;;;;;;;36.83;13.73;;;;;;;-0.28;95.89;99924.19;5092793;28;20024;-61
2021/11/28 07:20:30;;;;;;;36.30;13.87;;;;;;;-0.20;95.53;99922.72;5092876;28;20043;-61
2021/11/28 07:22:57;;;;;;;33.77;12.70;;;;;;;-0.13;95.96;99925.75;5092708;28;20459;-61
2021/11/28 07:25:23;;;;;;;36.77;14.00;;;;;;;-0.06;95.71;99937.47;5092835;28;20016;-61
2021/11/28 07:27:48;;;;;;;36.20;13.57;;;;;;;0.01;95.63;99939.69;5092684;28;20115;-61
2021/11/28 07:30:13;;;;;;;36.00;13.17;;;;;;;0.09;96.18;99940.00;5092334;28;20024;-61
2021/11/28 07:32:39;;;;;;;36.67;14.97;;;;;;;0.21;96.06;99940.91;5092651;28;20537;-61
2021/11/28 07:35:04;;;;;;;42.07;14.80;;;;;;;0.37;96.24;99945.94;5092785;28;20077;-61
2021/11/28 07:37:30;;;;;;;48.40;16.48;;;;;;;0.61;96.35;99962.56;5092667;28;20262;-61
2021/11/28 07:39:56;;;;;;;36.72;14.55;;;;;;;0.75;96.54;99972.06;5092673;28;20103;-61
2021/11/28 07:42:22;;;;;;;40.95;15.45;;;;;;;0.80;96.47;99974.34;5092587;28;20062;-61
2021/11/28 07:44:49;;;;;;;35.90;14.43;;;;;;;0.89;96.00;99973.69;5092750;28;20047;-61
2021/11/28 07:47:14;;;;;;;31.17;12.40;;;;;;;0.95;95.75;99975.88;5092548;28;20043;-61
2021/11/28 07:49:39;;;;;;;30.67;12.43;;;;;;;0.94;95.54;99983.88;5092261;28;20134;-61
2021/11/28 07:52:05;;;;;;;21.80;9.20;;;;;;;0.94;95.27;99979.44;5092248;28;20028;-61
2021/11/28 07:54:30;;;;;;;20.77;10.25;;;;;;;0.91;95.43;99976.22;5092260;28;20028;-60
2021/11/28 07:56:56;;;;;;;21.80;8.07;;;;;;;0.96;95.29;99977.56;5092140;28;20016;-62
2021/11/28 07:59:21;;;;;;;12.93;6.90;;;;;;;1.02;95.61;99983.31;5092036;28;20111;-61
2021/11/28 08:01:47;;;;;;;15.17;7.27;;;;;;;1.07;95.14;99978.56;5091632;28;20034;-64
2021/11/28 08:04:12;;;;;;;10.50;6.23;;;;;;;1.16;95.15;99980.53;5092400;28;20063;-60
2021/11/28 08:06:37;;;;;;;13.93;6.73;;;;;;;1.17;95.33;99990.09;5092110;28;20028;-61
2021/11/28 08:09:03;;;;;;;10.10;5.00;;;;;;;1.29;95.22;99993.59;5092109;28;20051;-61
2021/11/28 08:11:28;;;;;;;6.22;3.90;;;;;;;1.42;95.10;99998.75;5088361;28;20542;-62
2021/11/28 08:13:54;;;;;;;6.23;3.93;;;;;;;1.48;95.28;100000.94;5071516;28;20040;-60
2021/11/28 08:16:19;;;;;;;6.00;3.87;;;;;;;1.56;94.95;100003.00;5071292;28;20025;-63
2021/11/28 08:18:45;;;;;;;3.27;2.30;;;;;;;1.61;94.89;100006.94;5071607;28;20020;-60
2021/11/28 08:21:10;;;;;;;2.42;1.88;;;;;;;1.69;94.91;100010.81;5071383;28;20486;-61
2021/11/28 08:23:36;;;;;;;2.22;1.65;;;;;;;1.78;94.39;100018.00;5071568;28;20048;-60
2021/11/28 08:26:01;;;;;;;2.22;1.50;;;;;;;1.83;94.06;100018.50;5070531;28;20557;-60
2021/11/28 08:28:27;;;;;;;1.75;1.48;;;;;;;1.83;94.08;100023.75;5071307;28;20032;-62
2021/11/28 08:30:52;;;;;;;2.40;1.40;;;;;;;1.91;94.08;100023.19;5071020;28;20028;-62
2021/11/28 08:33:18;;;;;;;1.30;1.20;;;;;;;1.96;93.99;100034.19;5071249;28;20028;-63
2021/11/28 08:35:43;;;;;;;3.93;1.60;;;;;;;1.96;93.63;100042.06;5071278;28;20032;-61
2021/11/28 08:38:09;;;;;;;2.30;1.42;;;;;;;1.98;93.91;100040.16;5071359;28;20024;-62
2021/11/28 08:40:37;;;;;;;1.48;1.27;;;;;;;1.98;93.81;100038.38;5071292;28;20484;-63
2021/11/28 08:43:05;;;;;;;2.27;1.33;;;;;;;1.99;93.90;100047.09;5071039;28;20028;-62
2021/11/28 08:45:31;;;;;;;3.53;1.20;;;;;;;1.92;94.12;100043.25;5070944;28;20032;-62
2021/11/28 08:47:57;;;;;;;2.60;1.33;;;;;;;1.99;93.98;100049.72;5070717;28;20174;-62
2021/11/28 08:50:23;;;;;;;1.33;1.23;;;;;;;1.99;93.65;100052.34;5070830;28;20036;-63
2021/11/28 08:52:48;;;;;;;2.57;1.50;;;;;;;2.00;93.44;100051.41;5071279;28;20028;-65
2021/11/28 08:55:16;;;;;;;1.63;1.00;;;;;;;1.98;93.34;100048.88;5071014;28;20275;-66
2021/11/28 08:57:42;;;;;;;0.90;0.80;;;;;;;1.99;93.05;100054.97;5068922;28;20032;-68
2021/11/28 09:00:09;;;;;;;0.88;0.75;;;;;;;1.96;92.04;100053.41;5058696;28;20158;-65
2021/11/28 09:02:34;;;;;;;1.80;0.70;;;;;;;1.97;92.17;100068.22;5062327;28;20082;-69
2021/11/28 09:05:01;;;;;;;2.17;0.93;;;;;;;1.96;92.28;100073.59;5053436;28;20619;-67
2021/11/28 09:07:26;;;;;;;1.27;0.73;;;;;;;1.93;92.58;100079.94;5054788;28;20115;-67
2021/11/28 09:09:52;;;;;;;0.87;0.83;;;;;;;1.90;92.78;100084.56;5062760;28;20119;-67
2021/11/28 09:12:17;;;;;;;0.90;0.70;;;;;;;1.85;92.50;100079.63;5145242;22;20105;-67
2021/11/28 09:14:42;;;;;;;1.00;0.60;;;;;;;1.84;92.43;100083.25;5057311;28;20506;-66
2021/11/28 09:17:08;;;;;;;1.37;0.67;;;;;;;1.75;92.23;100087.38;5042378;28;20510;-68
2021/11/28 09:19:44;;;;;;;1.43;0.57;;;;;;;1.77;92.47;100084.63;5059275;28;20032;-66
2021/11/28 09:22:10;;;;;;;0.20;0.20;;;;;;;1.74;91.89;100092.75;5056532;28;20756;-65
2021/11/28 09:24:36;;;;;;;0.63;0.40;;;;;;;1.63;91.72;100099.63;5061179;28;20283;-66
2021/11/28 09:27:12;;;;;;;0.25;0.25;;;;;;;1.61;92.23;100100.69;5059187;28;20017;-67
2021/11/28 09:29:40;;;;;;;0.93;0.60;;;;;;;1.60;92.29;100099.84;5050193;28;20040;-66
2021/11/28 09:32:07;;;;;;;0.63;0.60;;;;;;;1.51;92.22;100103.16;5060802;28;20027;-65
2021/11/28 09:34:33;;;;;;;1.97;0.50;;;;;;;1.50;92.50;100106.72;5058281;28;20031;-66
2021/11/28 09:36:58;;;;;;;0.73;0.40;;;;;;;1.48;92.34;100111.22;5050590;28;20121;-65
2021/11/28 09:39:24;;;;;;;1.17;0.80;;;;;;;1.50;92.94;100109.34;5054518;28;20037;-67
2021/11/28 09:41:58;;;;;;;0.88;0.30;;;;;;;1.45;92.69;100106.22;5054465;28;20434;-66
2021/11/28 09:44:28;;;;;;;1.73;0.40;;;;;;;1.44;92.52;100115.03;5054501;28;20516;-67
2021/11/28 09:46:54;;;;;;;0.30;0.30;;;;;;;1.44;92.25;100109.78;5054310;28;20039;-66
2021/11/28 09:49:20;;;;;;;0.50;0.30;;;;;;;1.44;92.74;100104.53;5054461;28;20088;-66
2021/11/28 09:51:47;;;;;;;1.40;0.40;;;;;;;1.42;92.80;100103.78;5054284;28;20095;-64
2021/11/28 09:54:15;;;;;;;0.30;0.30;;;;;;;1.42;92.97;100085.41;5059343;28;20025;-66
2021/11/28 09:56:41;;;;;;;0.67;0.20;;;;;;;1.44;93.14;100080.91;5054078;28;20033;-65
2021/11/28 09:59:07;;;;;;;1.35;0.30;;;;;;;1.41;92.90;100089.00;5054220;28;20112;-63
2021/11/28 10:01:35;;;;;;;0.85;0.30;;;;;;;1.42;93.12;100091.50;5054068;28;20329;-64
2021/11/28 10:04:01;;;;;;;0.20;0.10;;;;;;;1.45;93.03;100091.28;5054195;28;20032;-65
2021/11/28 10:06:28;;;;;;;0.27;0.20;;;;;;;1.46;93.03;100081.63;5053967;28;20040;-66
2021/11/28 10:08:55;;;;;;;0.20;0.20;;;;;;;1.46;93.21;100064.09;5061778;28;20031;-65
2021/11/28 10:11:25;;;;;;;0.57;0.30;;;;;;;1.54;93.33;100052.16;5053776;28;20036;-67
2021/11/28 10:13:53;;;;;;;0.50;0.20;;;;;;;1.54;93.29;100062.66;5064758;28;20062;-62
2021/11/28 10:16:19;;;;;;;0.10;0.10;;;;;;;1.61;93.38;100085.75;5073756;28;20060;-62
2021/11/28 10:18:45;;;;;;;1.90;0.20;;;;;;;1.60;93.26;100081.47;5073736;28;20041;-64
2021/11/28 10:21:10;;;;;;;0.13;0.13;;;;;;;1.65;93.13;100084.59;5073902;28;20384;-61
2021/11/28 10:24:09;;;;;;;0.63;0.20;;;;;;;1.70;93.46;100083.41;5062779;28;20082;-61
2021/11/28 10:26:38;;;;;;;0.40;0.40;;;;;;;1.72;93.52;100081.50;5054693;28;20534;-64
2021/11/28 10:29:11;;;;;;;1.07;0.40;;;;;;;1.75;93.40;100078.66;5073779;28;20047;-62
2021/11/28 10:31:46;;;;;;;0.40;0.40;;;;;;;1.81;93.53;100086.94;5055312;28;20631;-63
2021/11/28 10:34:16;;;;;;;0.43;0.43;;;;;;;1.87;93.59;100077.75;5060367;28;20486;-60
2021/11/28 10:36:41;;;;;;;0.37;0.30;;;;;;;1.88;93.59;100084.69;5069752;28;20029;-60
2021/11/28 10:39:14;;;;;;;0.50;0.23;;;;;;;1.93;93.25;100082.56;5073218;28;20154;-59
2021/11/28 10:41:47;;;;;;;0.30;0.30;;;;;;;1.95;93.06;100085.88;5073305;28;20291;-61
2021/11/28 10:44:13;;;;;;;0.30;0.30;;;;;;;2.02;93.23;100091.53;5073347;28;20028;-62
2021/11/28 10:46:38;;;;;;;1.08;0.50;;;;;;;2.04;92.87;100101.94;5073058;28;20028;-62
2021/11/28 10:49:15;;;;;;;0.52;0.52;;;;;;;2.13;92.88;100103.88;5071936;28;20029;-62
2021/11/28 10:51:44;;;;;;;;;;;;;;;2.16;92.51;100109.72;5073587;28;20475;-64
2021/11/28 10:54:28;;;;;;;1.90;0.80;;;;;;;2.21;91.40;100105.94;5072940;28;20283;-60
2021/11/28 10:57:08;;;;;;;0.50;0.50;;;;;;;2.25;91.87;100110.84;5073176;28;20170;-61
2021/11/28 10:59:35;;;;;;;1.47;0.77;;;;;;;2.29;91.47;100112.28;5073019;28;20670;-60
2021/11/28 11:02:02;;;;;;;0.77;0.50;;;;;;;2.30;90.94;100119.22;5072936;28;20106;-59
2021/11/28 11:04:31;;;;;;;0.87;0.70;;;;;;;2.26;90.58;100116.91;5072621;28;20070;-60
2021/11/28 11:07:08;;;;;;;0.40;0.40;;;;;;;2.23;90.50;100117.16;5073039;28;20056;-61
2021/11/28 11:09:42;;;;;;;0.60;0.60;;;;;;;2.14;90.87;100109.03;5072879;28;20028;-62
2021/11/28 11:12:34;;;;;;;1.70;0.80;;;;;;;2.09;91.28;100102.41;5065689;28;20052;-60
2021/11/28 11:14:59;;;;;;;0.90;0.50;;;;;;;2.09;91.63;100094.53;5052365;28;20527;-60
2021/11/28 11:17:31;;;;;;;0.82;0.60;;;;;;;2.05;91.34;100103.59;5052519;28;20021;-63
2021/11/28 11:19:58;;;;;;;1.73;0.70;;;;;;;2.07;91.70;100106.97;5052499;28;20025;-65
2021/11/28 11:22:31;;;;;;;1.03;0.70;;;;;;;2.08;92.09;100101.59;5052390;28;20551;-64
2021/11/28 11:24:58;;;;;;;1.20;0.67;;;;;;;2.15;91.92;100101.97;5052299;28;20017;-66
2021/11/28 11:27:27;;;;;;;2.67;0.70;;;;;;;2.18;92.08;100099.13;5052232;28;20148;-62
2021/11/28 11:29:56;;;;;;;0.60;0.60;;;;;;;2.22;92.11;100090.03;5052139;28;20491;-64
2021/11/28 11:32:38;;;;;;;2.07;0.73;;;;;;;2.32;92.05;100091.03;5052281;28;20040;-64
2021/11/28 11:35:08;;;;;;;1.13;0.80;;;;;;;2.39;92.39;100095.81;5052016;28;20080;-65